sensor_id;sensor_type;location;lat;lon;timestamp;pressure;altitude;pressure_sealevel;temperature;humidity
16190;BME280;41754;51.498;7.540;2023-03-13T00:01:41;99217.47;;;10.71;56.21
16190;BME280;41754;51.498;7.540;2023-03-13T00:04:09;99203.03;;;11.07;55.17
16190;BME280;41754;51.498;7.540;2023-03-13T00:06:38;99200.31;;;11.19;55.11
16190;BME280;41754;51.498;7.540;2023-03-13T00:09:07;99196.28;;;11.17;54.73
16190;BME280;41754;51.498;7.540;2023-03-13T00:11:35;99185.91;;;11.47;54.68
16190;BME280;41754;51.498;7.540;2023-03-13T00:14:04;99172.78;;;10.74;56.56
16190;BME280;41754;51.498;7.540;2023-03-13T00:16:32;99175.88;;;10.72;56.86
16190;BME280;41754;51.498;7.540;2023-03-13T00:19:05;99172.97;;;10.57;57.41
16190;BME280;41754;51.498;7.540;2023-03-13T00:21:34;99173.59;;;10.74;57.58
16190;BME280;41754;51.498;7.540;2023-03-13T00:24:03;99170.28;;;10.48;58.54
16190;BME280;41754;51.498;7.540;2023-03-13T00:26:31;99170.84;;;10.41;58.27
16190;BME280;41754;51.498;7.540;2023-03-13T00:28:58;99159.84;;;10.87;57.01
16190;BME280;41754;51.498;7.540;2023-03-13T00:31:28;99152.78;;;11.10;56.34
16190;BME280;41754;51.498;7.540;2023-03-13T00:33:58;99149.78;;;10.91;57.86
16190;BME280;41754;51.498;7.540;2023-03-13T00:36:29;99146.38;;;11.06;57.29
16190;BME280;41754;51.498;7.540;2023-03-13T00:38:58;99142.25;;;10.55;58.74
16190;BME280;41754;51.498;7.540;2023-03-13T00:41:28;99157.47;;;10.52;58.94
16190;BME280;41754;51.498;7.540;2023-03-13T00:43:57;99151.22;;;10.76;58.79
16190;BME280;41754;51.498;7.540;2023-03-13T00:46:26;99146.84;;;11.20;57.46
16190;BME280;41754;51.498;7.540;2023-03-13T00:48:55;99137.78;;;10.62;59.22
16190;BME280;41754;51.498;7.540;2023-03-13T00:51:23;99131.44;;;10.82;59.09
16190;BME280;41754;51.498;7.540;2023-03-13T00:53:54;99129.38;;;10.92;59.73
16190;BME280;41754;51.498;7.540;2023-03-13T00:56:22;99121.59;;;11.06;60.17
16190;BME280;41754;51.498;7.540;2023-03-13T00:58:50;99117.03;;;10.52;60.21
16190;BME280;41754;51.498;7.540;2023-03-13T01:01:20;99112.94;;;10.71;59.59
16190;BME280;41754;51.498;7.540;2023-03-13T01:03:49;99102.00;;;11.07;60.90
16190;BME280;41754;51.498;7.540;2023-03-13T01:06:20;99095.88;;;11.75;62.33
16190;BME280;41754;51.498;7.540;2023-03-13T01:08:48;99097.59;;;10.37;63.15
16190;BME280;41754;51.498;7.540;2023-03-13T01:11:19;99083.22;;;10.52;63.89
16190;BME280;41754;51.498;7.540;2023-03-13T01:13:48;99066.88;;;10.14;64.14
16190;BME280;41754;51.498;7.540;2023-03-13T01:16:18;99075.22;;;10.71;63.02
16190;BME280;41754;51.498;7.540;2023-03-13T01:18:48;99062.81;;;10.53;64.66
16190;BME280;41754;51.498;7.540;2023-03-13T01:21:18;99055.84;;;10.56;65.06
16190;BME280;41754;51.498;7.540;2023-03-13T01:23:47;99056.44;;;11.10;65.03
16190;BME280;41754;51.498;7.540;2023-03-13T01:26:17;99046.75;;;10.43;65.28
16190;BME280;41754;51.498;7.540;2023-03-13T01:28:45;99044.72;;;11.25;65.54
16190;BME280;41754;51.498;7.540;2023-03-13T01:31:17;99041.00;;;10.36;66.43
16190;BME280;41754;51.498;7.540;2023-03-13T01:33:46;99028.97;;;10.28;67.56
16190;BME280;41754;51.498;7.540;2023-03-13T01:36:16;99009.66;;;10.61;64.52
16190;BME280;41754;51.498;7.540;2023-03-13T01:38:47;99003.88;;;10.30;65.09
16190;BME280;41754;51.498;7.540;2023-03-13T01:41:17;99000.94;;;10.96;65.88
16190;BME280;41754;51.498;7.540;2023-03-13T01:43:46;98995.66;;;10.42;66.44
16190;BME280;41754;51.498;7.540;2023-03-13T01:46:15;98997.84;;;10.85;65.25
16190;BME280;41754;51.498;7.540;2023-03-13T01:49:04;98997.03;;;10.60;64.25
16190;BME280;41754;51.498;7.540;2023-03-13T01:51:43;99001.84;;;11.12;62.42
16190;BME280;41754;51.498;7.540;2023-03-13T01:54:14;99005.63;;;10.59;65.34
16190;BME280;41754;51.498;7.540;2023-03-13T01:56:47;98997.06;;;10.15;67.61
16190;BME280;41754;51.498;7.540;2023-03-13T01:59:18;98977.34;;;10.13;69.69
16190;BME280;41754;51.498;7.540;2023-03-13T02:01:50;98963.31;;;10.51;69.06
16190;BME280;41754;51.498;7.540;2023-03-13T02:04:20;98962.66;;;10.66;67.32
16190;BME280;41754;51.498;7.540;2023-03-13T02:06:53;98958.97;;;10.62;67.83
16190;BME280;41754;51.498;7.540;2023-03-13T02:09:26;98942.97;;;10.52;68.40
16190;BME280;41754;51.498;7.540;2023-03-13T02:12:01;98954.16;;;10.35;69.04
16190;BME280;41754;51.498;7.540;2023-03-13T02:14:33;98935.97;;;10.67;68.96
16190;BME280;41754;51.498;7.540;2023-03-13T02:17:04;98933.66;;;10.44;70.80
16190;BME280;41754;51.498;7.540;2023-03-13T02:19:37;98919.09;;;10.32;72.24
16190;BME280;41754;51.498;7.540;2023-03-13T02:22:12;98921.97;;;9.78;74.41
16190;BME280;41754;51.498;7.540;2023-03-13T02:24:50;98918.56;;;9.93;76.62
16190;BME280;41754;51.498;7.540;2023-03-13T02:27:23;98918.13;;;10.03;76.21
16190;BME280;41754;51.498;7.540;2023-03-13T02:29:51;98903.97;;;10.26;74.85
16190;BME280;41754;51.498;7.540;2023-03-13T02:32:20;98910.31;;;9.93;76.97
16190;BME280;41754;51.498;7.540;2023-03-13T02:34:51;98903.84;;;9.77;78.13
16190;BME280;41754;51.498;7.540;2023-03-13T02:37:22;98899.59;;;9.67;80.23
16190;BME280;41754;51.498;7.540;2023-03-13T02:39:52;98879.34;;;9.72;81.60
16190;BME280;41754;51.498;7.540;2023-03-13T02:42:22;98894.28;;;9.95;81.15
16190;BME280;41754;51.498;7.540;2023-03-13T02:44:51;98881.78;;;9.85;82.02
16190;BME280;41754;51.498;7.540;2023-03-13T02:47:21;98873.91;;;9.96;81.04
16190;BME280;41754;51.498;7.540;2023-03-13T02:49:49;98869.09;;;9.93;81.28
16190;BME280;41754;51.498;7.540;2023-03-13T02:52:20;98866.38;;;10.05;80.33
16190;BME280;41754;51.498;7.540;2023-03-13T02:54:52;98856.06;;;10.02;80.29
16190;BME280;41754;51.498;7.540;2023-03-13T02:57:23;98856.41;;;10.13;80.64
16190;BME280;41754;51.498;7.540;2023-03-13T02:59:51;98850.09;;;10.12;80.62
16190;BME280;41754;51.498;7.540;2023-03-13T03:02:19;98872.28;;;9.83;81.60
16190;BME280;41754;51.498;7.540;2023-03-13T03:04:47;98861.00;;;10.58;84.83
16190;BME280;41754;51.498;7.540;2023-03-13T03:07:14;98847.44;;;9.67;85.00
16190;BME280;41754;51.498;7.540;2023-03-13T03:09:43;98844.97;;;10.35;82.50
16190;BME280;41754;51.498;7.540;2023-03-13T03:12:16;98829.66;;;10.87;77.00
16190;BME280;41754;51.498;7.540;2023-03-13T03:14:45;98814.06;;;10.91;76.86
16190;BME280;41754;51.498;7.540;2023-03-13T03:17:14;98812.72;;;10.72;76.75
16190;BME280;41754;51.498;7.540;2023-03-13T03:19:42;98830.19;;;10.03;79.09
16190;BME280;41754;51.498;7.540;2023-03-13T03:22:10;98820.97;;;11.40;75.60
16190;BME280;41754;51.498;7.540;2023-03-13T03:24:37;98826.06;;;10.58;78.58
16190;BME280;41754;51.498;7.540;2023-03-13T03:27:05;98810.72;;;9.84;81.24
16190;BME280;41754;51.498;7.540;2023-03-13T03:29:40;98817.91;;;9.88;83.43
16190;BME280;41754;51.498;7.540;2023-03-13T03:32:09;98786.47;;;11.31;76.07
16190;BME280;41754;51.498;7.540;2023-03-13T03:34:37;98829.88;;;10.41;82.29
16190;BME280;41754;51.498;7.540;2023-03-13T03:37:06;98789.69;;;11.05;77.15
16190;BME280;41754;51.498;7.540;2023-03-13T03:39:33;98798.59;;;10.21;80.14
16190;BME280;41754;51.498;7.540;2023-03-13T03:42:04;98794.78;;;9.53;84.61
16190;BME280;41754;51.498;7.540;2023-03-13T03:44:32;98804.50;;;10.60;82.38
16190;BME280;41754;51.498;7.540;2023-03-13T03:46:59;98787.28;;;10.63;81.29
16190;BME280;41754;51.498;7.540;2023-03-13T03:49:33;98796.41;;;10.03;84.72
16190;BME280;41754;51.498;7.540;2023-03-13T03:52:01;98786.66;;;10.17;85.48
16190;BME280;41754;51.498;7.540;2023-03-13T03:54:34;98799.03;;;9.99;86.18
16190;BME280;41754;51.498;7.540;2023-03-13T03:57:02;98792.97;;;10.42;84.05
16190;BME280;41754;51.498;7.540;2023-03-13T03:59:30;98808.84;;;10.61;83.57
16190;BME280;41754;51.498;7.540;2023-03-13T04:02:03;98783.69;;;10.10;84.74
16190;BME280;41754;51.498;7.540;2023-03-13T04:04:33;98797.88;;;10.00;85.32
16190;BME280;41754;51.498;7.540;2023-03-13T04:07:06;98793.53;;;10.36;84.65
16190;BME280;41754;51.498;7.540;2023-03-13T04:09:34;98783.94;;;10.30;84.78
16190;BME280;41754;51.498;7.540;2023-03-13T04:12:05;98789.28;;;10.14;84.14
16190;BME280;41754;51.498;7.540;2023-03-13T04:14:37;98783.47;;;10.40;82.87
16190;BME280;41754;51.498;7.540;2023-03-13T04:17:07;98789.72;;;10.65;80.54
16190;BME280;41754;51.498;7.540;2023-03-13T04:19:37;98774.13;;;10.69;81.75
16190;BME280;41754;51.498;7.540;2023-03-13T04:22:05;98784.56;;;10.51;82.38
16190;BME280;41754;51.498;7.540;2023-03-13T04:24:33;98791.53;;;10.61;82.42
16190;BME280;41754;51.498;7.540;2023-03-13T04:27:01;98775.31;;;10.84;81.66
16190;BME280;41754;51.498;7.540;2023-03-13T04:29:32;98786.78;;;10.45;82.83
16190;BME280;41754;51.498;7.540;2023-03-13T04:32:19;98772.31;;;11.17;77.93
16190;BME280;41754;51.498;7.540;2023-03-13T04:35:00;98767.09;;;11.27;79.53
16190;BME280;41754;51.498;7.540;2023-03-13T04:37:34;98764.72;;;10.70;82.81
16190;BME280;41754;51.498;7.540;2023-03-13T04:40:21;98774.28;;;10.48;84.83
16190;BME280;41754;51.498;7.540;2023-03-13T04:42:54;98780.69;;;10.52;85.55
16190;BME280;41754;51.498;7.540;2023-03-13T04:45:41;98754.72;;;10.77;85.23
16190;BME280;41754;51.498;7.540;2023-03-13T04:49:04;98760.25;;;11.65;83.01
16190;BME280;41754;51.498;7.540;2023-03-13T04:51:58;98766.97;;;11.08;83.86
16190;BME280;41754;51.498;7.540;2023-03-13T04:54:50;98755.63;;;10.81;85.18
16190;BME280;41754;51.498;7.540;2023-03-13T04:57:38;98758.19;;;10.62;85.93
16190;BME280;41754;51.498;7.540;2023-03-13T05:00:26;98749.66;;;10.79;86.11
16190;BME280;41754;51.498;7.540;2023-03-13T05:03:11;98755.25;;;11.11;85.33
16190;BME280;41754;51.498;7.540;2023-03-13T05:06:00;98755.66;;;10.97;85.99
16190;BME280;41754;51.498;7.540;2023-03-13T05:08:55;98743.16;;;10.72;85.38
16190;BME280;41754;51.498;7.540;2023-03-13T05:11:41;98750.28;;;10.61;87.48
16190;BME280;41754;51.498;7.540;2023-03-13T05:14:35;98749.63;;;10.92;87.19
16190;BME280;41754;51.498;7.540;2023-03-13T05:17:21;98750.25;;;11.01;87.10
16190;BME280;41754;51.498;7.540;2023-03-13T05:19:56;98738.41;;;10.85;87.25
16190;BME280;41754;51.498;7.540;2023-03-13T05:22:42;98733.06;;;11.20;87.43
16190;BME280;41754;51.498;7.540;2023-03-13T05:25:20;98741.41;;;11.23;85.18
16190;BME280;41754;51.498;7.540;2023-03-13T05:28:24;98737.63;;;11.00;86.54
16190;BME280;41754;51.498;7.540;2023-03-13T05:31:27;98724.72;;;11.16;85.68
16190;BME280;41754;51.498;7.540;2023-03-13T05:33:55;98720.03;;;11.32;85.02
16190;BME280;41754;51.498;7.540;2023-03-13T05:36:41;98729.97;;;11.21;84.78
16190;BME280;41754;51.498;7.540;2023-03-13T05:39:31;98720.38;;;11.15;84.57
16190;BME280;41754;51.498;7.540;2023-03-13T05:42:20;98711.47;;;11.22;85.36
16190;BME280;41754;51.498;7.540;2023-03-13T05:45:08;98715.56;;;11.12;84.07
16190;BME280;41754;51.498;7.540;2023-03-13T05:47:54;98713.31;;;11.46;81.70
16190;BME280;41754;51.498;7.540;2023-03-13T05:50:36;98693.28;;;12.70;77.85
16190;BME280;41754;51.498;7.540;2023-03-13T05:53:24;98711.13;;;12.56;75.37
16190;BME280;41754;51.498;7.540;2023-03-13T05:56:12;98704.78;;;12.37;79.83
16190;BME280;41754;51.498;7.540;2023-03-13T05:58:50;98705.47;;;11.79;79.86
16190;BME280;41754;51.498;7.540;2023-03-13T06:01:43;98711.59;;;11.73;81.63
16190;BME280;41754;51.498;7.540;2023-03-13T06:04:24;98713.22;;;11.58;83.43
16190;BME280;41754;51.498;7.540;2023-03-13T06:06:52;98730.72;;;11.50;83.90
16190;BME280;41754;51.498;7.540;2023-03-13T06:09:20;98734.63;;;11.49;84.67
16190;BME280;41754;51.498;7.540;2023-03-13T06:11:49;98733.50;;;11.65;84.81
16190;BME280;41754;51.498;7.540;2023-03-13T06:14:19;98724.50;;;11.68;83.63
16190;BME280;41754;51.498;7.540;2023-03-13T06:17:16;98701.47;;;12.27;80.67
16190;BME280;41754;51.498;7.540;2023-03-13T06:19:45;98695.44;;;12.99;76.67
16190;BME280;41754;51.498;7.540;2023-03-13T06:22:15;98707.59;;;12.02;80.13
16190;BME280;41754;51.498;7.540;2023-03-13T06:24:42;98700.00;;;11.98;81.71
16190;BME280;41754;51.498;7.540;2023-03-13T06:27:12;98687.03;;;12.73;80.69
16190;BME280;41754;51.498;7.540;2023-03-13T06:29:41;98683.09;;;12.93;74.83
16190;BME280;41754;51.498;7.540;2023-03-13T06:32:09;98690.44;;;11.92;80.07
16190;BME280;41754;51.498;7.540;2023-03-13T06:34:37;98695.94;;;11.92;81.06
16190;BME280;41754;51.498;7.540;2023-03-13T06:37:05;98694.75;;;12.64;78.63
16190;BME280;41754;51.498;7.540;2023-03-13T06:39:32;98693.13;;;13.01;76.39
16190;BME280;41754;51.498;7.540;2023-03-13T06:42:00;98683.13;;;12.74;76.54
16190;BME280;41754;51.498;7.540;2023-03-13T06:44:28;98682.63;;;12.68;76.83
16190;BME280;41754;51.498;7.540;2023-03-13T06:46:57;98690.53;;;12.89;76.70
16190;BME280;41754;51.498;7.540;2023-03-13T06:49:25;98681.63;;;12.76;75.04
16190;BME280;41754;51.498;7.540;2023-03-13T06:51:56;98680.50;;;13.00;74.87
16190;BME280;41754;51.498;7.540;2023-03-13T06:54:23;98671.16;;;13.31;74.43
16190;BME280;41754;51.498;7.540;2023-03-13T06:56:51;98664.03;;;13.53;72.66
16190;BME280;41754;51.498;7.540;2023-03-13T06:59:19;98666.72;;;13.72;70.07
16190;BME280;41754;51.498;7.540;2023-03-13T07:01:47;98671.25;;;13.61;70.30
16190;BME280;41754;51.498;7.540;2023-03-13T07:04:16;98683.44;;;13.34;74.12
16190;BME280;41754;51.498;7.540;2023-03-13T07:06:44;98680.22;;;12.67;76.01
16190;BME280;41754;51.498;7.540;2023-03-13T07:09:12;98705.56;;;12.72;75.52
16190;BME280;41754;51.498;7.540;2023-03-13T07:11:39;98694.94;;;12.94;73.67
16190;BME280;41754;51.498;7.540;2023-03-13T07:14:07;98697.19;;;13.30;73.38
16190;BME280;41754;51.498;7.540;2023-03-13T07:16:43;98693.28;;;12.70;74.11
16190;BME280;41754;51.498;7.540;2023-03-13T07:19:11;98705.19;;;12.54;74.77
16190;BME280;41754;51.498;7.540;2023-03-13T07:21:41;98694.16;;;12.74;74.58
16190;BME280;41754;51.498;7.540;2023-03-13T07:24:09;98693.72;;;12.72;74.89
16190;BME280;41754;51.498;7.540;2023-03-13T07:26:37;98698.38;;;12.68;74.38
16190;BME280;41754;51.498;7.540;2023-03-13T07:29:14;98667.81;;;12.99;74.00
16190;BME280;41754;51.498;7.540;2023-03-13T07:31:41;98668.47;;;13.35;73.91
16190;BME280;41754;51.498;7.540;2023-03-13T07:34:09;98682.50;;;13.03;73.19
16190;BME280;41754;51.498;7.540;2023-03-13T07:36:37;98684.41;;;13.22;72.42
16190;BME280;41754;51.498;7.540;2023-03-13T07:39:08;98664.75;;;14.89;65.07
16190;BME280;41754;51.498;7.540;2023-03-13T07:41:36;98649.06;;;15.48;61.36
16190;BME280;41754;51.498;7.540;2023-03-13T07:44:05;98659.00;;;15.09;62.57
16190;BME280;41754;51.498;7.540;2023-03-13T07:46:33;98644.75;;;14.40;62.97
16190;BME280;41754;51.498;7.540;2023-03-13T07:49:01;98648.13;;;15.34;61.57
16190;BME280;41754;51.498;7.540;2023-03-13T07:51:29;98637.13;;;13.99;64.62
16190;BME280;41754;51.498;7.540;2023-03-13T07:54:10;98654.56;;;14.67;62.90
16190;BME280;41754;51.498;7.540;2023-03-13T07:56:38;98644.34;;;14.08;63.31
16190;BME280;41754;51.498;7.540;2023-03-13T07:59:06;98638.75;;;14.68;62.59
16190;BME280;41754;51.498;7.540;2023-03-13T08:01:35;98623.78;;;14.72;65.00
16190;BME280;41754;51.498;7.540;2023-03-13T08:04:03;98642.56;;;15.30;60.17
16190;BME280;41754;51.498;7.540;2023-03-13T08:06:32;98617.56;;;15.71;59.12
16190;BME280;41754;51.498;7.540;2023-03-13T08:09:02;98619.03;;;15.58;59.03
16190;BME280;41754;51.498;7.540;2023-03-13T08:11:32;98620.00;;;14.20;63.13
16190;BME280;41754;51.498;7.540;2023-03-13T08:13:59;98639.97;;;15.48;60.21
16190;BME280;41754;51.498;7.540;2023-03-13T08:16:29;98616.75;;;15.67;57.99
16190;BME280;41754;51.498;7.540;2023-03-13T08:18:58;98614.25;;;15.55;58.24
16190;BME280;41754;51.498;7.540;2023-03-13T08:21:27;98631.09;;;14.54;61.80
16190;BME280;41754;51.498;7.540;2023-03-13T08:23:57;98621.06;;;13.82;63.48
16190;BME280;41754;51.498;7.540;2023-03-13T08:26:27;98612.88;;;14.19;63.60
16190;BME280;41754;51.498;7.540;2023-03-13T08:28:58;98605.56;;;14.04;63.19
16190;BME280;41754;51.498;7.540;2023-03-13T08:31:28;98632.06;;;14.05;63.17
16190;BME280;41754;51.498;7.540;2023-03-13T08:33:56;98622.34;;;13.88;63.33
16190;BME280;41754;51.498;7.540;2023-03-13T08:36:26;98602.22;;;14.21;62.67
16190;BME280;41754;51.498;7.540;2023-03-13T08:38:59;98606.94;;;14.17;62.12
16190;BME280;41754;51.498;7.540;2023-03-13T08:41:29;98610.44;;;14.14;62.19
16190;BME280;41754;51.498;7.540;2023-03-13T08:43:59;98610.00;;;15.20;58.65
16190;BME280;41754;51.498;7.540;2023-03-13T08:46:28;98625.47;;;14.13;61.23
16190;BME280;41754;51.498;7.540;2023-03-13T08:48:56;98617.47;;;14.72;61.23
16190;BME280;41754;51.498;7.540;2023-03-13T08:51:26;98605.94;;;15.07;59.33
16190;BME280;41754;51.498;7.540;2023-03-13T08:53:55;98625.38;;;14.40;60.88
16190;BME280;41754;51.498;7.540;2023-03-13T08:56:24;98628.44;;;14.01;61.91
16190;BME280;41754;51.498;7.540;2023-03-13T08:58:54;98640.91;;;13.88;62.56
16190;BME280;41754;51.498;7.540;2023-03-13T09:01:25;98622.88;;;14.27;62.11
16190;BME280;41754;51.498;7.540;2023-03-13T09:03:53;98636.38;;;14.66;59.87
16190;BME280;41754;51.498;7.540;2023-03-13T09:06:21;98646.41;;;15.15;59.11
16190;BME280;41754;51.498;7.540;2023-03-13T09:08:49;98634.19;;;14.82;59.82
16190;BME280;41754;51.498;7.540;2023-03-13T09:11:18;98626.25;;;14.77;59.82
16190;BME280;41754;51.498;7.540;2023-03-13T09:13:48;98633.97;;;14.65;60.84
16190;BME280;41754;51.498;7.540;2023-03-13T09:16:18;98620.47;;;14.59;61.66
16190;BME280;41754;51.498;7.540;2023-03-13T09:18:48;98620.75;;;14.84;61.14
16190;BME280;41754;51.498;7.540;2023-03-13T09:21:18;98636.03;;;14.38;61.74
16190;BME280;41754;51.498;7.540;2023-03-13T09:23:46;98635.06;;;14.90;60.98
16190;BME280;41754;51.498;7.540;2023-03-13T09:26:15;98638.72;;;14.64;61.65
16190;BME280;41754;51.498;7.540;2023-03-13T09:28:43;98646.44;;;14.81;61.18
16190;BME280;41754;51.498;7.540;2023-03-13T09:31:13;98626.09;;;15.00;60.33
16190;BME280;41754;51.498;7.540;2023-03-13T09:33:41;98622.75;;;15.28;59.99
16190;BME280;41754;51.498;7.540;2023-03-13T09:36:11;98623.66;;;15.39;58.73
16190;BME280;41754;51.498;7.540;2023-03-13T09:38:39;98597.09;;;15.90;58.38
16190;BME280;41754;51.498;7.540;2023-03-13T09:41:28;98583.34;;;16.22;56.24
16190;BME280;41754;51.498;7.540;2023-03-13T09:44:02;98593.75;;;16.35;55.90
16190;BME280;41754;51.498;7.540;2023-03-13T09:46:37;98604.41;;;16.23;55.79
16190;BME280;41754;51.498;7.540;2023-03-13T09:49:13;98576.34;;;18.90;49.84
16190;BME280;41754;51.498;7.540;2023-03-13T09:51:48;98589.81;;;18.25;50.56
16190;BME280;41754;51.498;7.540;2023-03-13T09:54:23;98604.69;;;17.51;51.81
16190;BME280;41754;51.498;7.540;2023-03-13T09:56:55;98584.81;;;17.49;53.15
16190;BME280;41754;51.498;7.540;2023-03-13T09:59:28;98575.66;;;16.95;54.64
16190;BME280;41754;51.498;7.540;2023-03-13T10:01:59;98602.25;;;16.89;55.41
16190;BME280;41754;51.498;7.540;2023-03-13T10:04:34;98577.59;;;16.70;55.55
16190;BME280;41754;51.498;7.540;2023-03-13T10:07:11;98568.91;;;16.96;54.49
16190;BME280;41754;51.498;7.540;2023-03-13T10:09:39;98550.25;;;17.61;53.47
16190;BME280;41754;51.498;7.540;2023-03-13T10:12:14;98547.41;;;17.86;52.55
16190;BME280;41754;51.498;7.540;2023-03-13T10:14:50;98559.31;;;17.82;51.90
16190;BME280;41754;51.498;7.540;2023-03-13T10:17:29;98558.56;;;17.57;53.05
16190;BME280;41754;51.498;7.540;2023-03-13T10:20:00;98560.56;;;17.64;52.34
16190;BME280;41754;51.498;7.540;2023-03-13T10:22:36;98543.34;;;18.04;52.14
16190;BME280;41754;51.498;7.540;2023-03-13T10:25:08;98552.84;;;18.14;51.50
16190;BME280;41754;51.498;7.540;2023-03-13T10:27:43;98558.88;;;18.02;51.48
16190;BME280;41754;51.498;7.540;2023-03-13T10:30:19;98526.63;;;18.08;51.07
16190;BME280;41754;51.498;7.540;2023-03-13T10:32:49;98544.38;;;18.46;49.83
16190;BME280;41754;51.498;7.540;2023-03-13T10:35:22;98552.72;;;18.50;49.72
16190;BME280;41754;51.498;7.540;2023-03-13T10:38:02;98553.13;;;19.11;47.88
16190;BME280;41754;51.498;7.540;2023-03-13T10:40:30;98551.06;;;18.56;49.26
16190;BME280;41754;51.498;7.540;2023-03-13T10:43:04;98525.66;;;19.06;47.80
16190;BME280;41754;51.498;7.540;2023-03-13T10:45:35;98540.66;;;18.71;47.11
16190;BME280;41754;51.498;7.540;2023-03-13T10:48:10;98531.06;;;18.75;46.72
16190;BME280;41754;51.498;7.540;2023-03-13T10:50:41;98506.88;;;19.54;45.21
16190;BME280;41754;51.498;7.540;2023-03-13T10:53:22;98562.84;;;18.81;45.73
16190;BME280;41754;51.498;7.540;2023-03-13T10:55:54;98509.34;;;19.08;45.98
16190;BME280;41754;51.498;7.540;2023-03-13T10:58:29;98526.91;;;18.97;46.17
16190;BME280;41754;51.498;7.540;2023-03-13T11:01:14;98504.34;;;18.08;47.42
16190;BME280;41754;51.498;7.540;2023-03-13T11:03:44;98551.22;;;18.24;47.48
16190;BME280;41754;51.498;7.540;2023-03-13T11:06:29;98527.22;;;18.55;46.96
16190;BME280;41754;51.498;7.540;2023-03-13T11:09:10;98505.81;;;19.79;44.53
16190;BME280;41754;51.498;7.540;2023-03-13T11:11:46;98494.75;;;19.34;44.35
16190;BME280;41754;51.498;7.540;2023-03-13T11:14:17;98512.69;;;18.85;45.28
16190;BME280;41754;51.498;7.540;2023-03-13T11:16:47;98510.44;;;20.27;42.48
16190;BME280;41754;51.498;7.540;2023-03-13T11:19:29;98479.41;;;20.48;41.85
16190;BME280;41754;51.498;7.540;2023-03-13T11:22:12;98487.72;;;19.22;43.75
16190;BME280;41754;51.498;7.540;2023-03-13T11:24:49;98512.72;;;19.71;43.45
16190;BME280;41754;51.498;7.540;2023-03-13T11:27:26;98464.81;;;21.77;39.01
16190;BME280;41754;51.498;7.540;2023-03-13T11:30:07;98475.88;;;19.87;41.41
16190;BME280;41754;51.498;7.540;2023-03-13T11:32:42;98498.38;;;20.03;40.34
16190;BME280;41754;51.498;7.540;2023-03-13T11:35:21;98463.97;;;19.79;42.25
16190;BME280;41754;51.498;7.540;2023-03-13T11:37:55;98470.84;;;18.88;44.11
16190;BME280;41754;51.498;7.540;2023-03-13T11:40:29;98470.81;;;20.35;41.27
16190;BME280;41754;51.498;7.540;2023-03-13T11:43:17;98481.84;;;19.10;43.43
16190;BME280;41754;51.498;7.540;2023-03-13T11:46:01;98448.72;;;19.15;43.17
16190;BME280;41754;51.498;7.540;2023-03-13T11:51:26;98434.97;;;20.57;41.85
16190;BME280;41754;51.498;7.540;2023-03-13T11:54:10;98446.31;;;21.44;38.73
16190;BME280;41754;51.498;7.540;2023-03-13T11:56:46;98438.16;;;20.59;40.03
16190;BME280;41754;51.498;7.540;2023-03-13T11:59:30;98430.03;;;20.41;39.96
16190;BME280;41754;51.498;7.540;2023-03-13T12:02:01;98441.19;;;20.14;40.43
16190;BME280;41754;51.498;7.540;2023-03-13T12:04:37;98420.13;;;20.37;39.86
16190;BME280;41754;51.498;7.540;2023-03-13T12:07:20;98414.81;;;20.93;39.17
16190;BME280;41754;51.498;7.540;2023-03-13T12:09:53;98398.00;;;21.40;38.53
16190;BME280;41754;51.498;7.540;2023-03-13T12:12:32;98426.78;;;19.89;40.45
16190;BME280;41754;51.498;7.540;2023-03-13T12:15:15;98387.38;;;21.71;37.17
16190;BME280;41754;51.498;7.540;2023-03-13T12:17:51;98400.47;;;20.17;39.45
16190;BME280;41754;51.498;7.540;2023-03-13T12:20:23;98390.78;;;20.25;39.29
16190;BME280;41754;51.498;7.540;2023-03-13T12:22:57;98387.97;;;21.62;36.71
16190;BME280;41754;51.498;7.540;2023-03-13T12:25:30;98375.09;;;21.84;37.54
16190;BME280;41754;51.498;7.540;2023-03-13T12:28:05;98379.28;;;24.83;31.85
16190;BME280;41754;51.498;7.540;2023-03-13T12:30:41;98365.84;;;25.56;31.71
16190;BME280;41754;51.498;7.540;2023-03-13T12:33:16;98374.97;;;23.34;33.35
16190;BME280;41754;51.498;7.540;2023-03-13T12:35:53;98371.94;;;21.82;36.54
16190;BME280;41754;51.498;7.540;2023-03-13T12:38:27;98369.94;;;21.83;37.30
16190;BME280;41754;51.498;7.540;2023-03-13T12:41:07;98379.72;;;22.27;36.09
16190;BME280;41754;51.498;7.540;2023-03-13T12:43:41;98366.41;;;24.21;32.21
16190;BME280;41754;51.498;7.540;2023-03-13T12:46:40;98369.09;;;22.71;33.49
16190;BME280;41754;51.498;7.540;2023-03-13T12:49:19;98362.22;;;20.64;37.19
16190;BME280;41754;51.498;7.540;2023-03-13T12:52:07;98371.00;;;22.74;34.24
16190;BME280;41754;51.498;7.540;2023-03-13T12:55:01;98353.84;;;23.59;32.80
16190;BME280;41754;51.498;7.540;2023-03-13T12:57:59;98343.69;;;25.67;29.99
16190;BME280;41754;51.498;7.540;2023-03-13T13:00:35;98348.25;;;27.22;27.63
16190;BME280;41754;51.498;7.540;2023-03-13T13:03:14;98341.13;;;26.53;29.12
16190;BME280;41754;51.498;7.540;2023-03-13T13:05:59;98358.44;;;25.15;30.37
16190;BME280;41754;51.498;7.540;2023-03-13T13:08:32;98358.13;;;21.36;36.15
16190;BME280;41754;51.498;7.540;2023-03-13T13:17:34;98311.63;;;20.35;38.89
16190;BME280;41754;51.498;7.540;2023-03-13T13:20:34;98326.25;;;21.69;36.56
16190;BME280;41754;51.498;7.540;2023-03-13T13:23:28;98315.81;;;20.24;38.99
16190;BME280;41754;51.498;7.540;2023-03-13T13:32:39;98316.75;;;20.13;39.86
16190;BME280;41754;51.498;7.540;2023-03-13T13:35:34;98312.25;;;21.69;36.38
16190;BME280;41754;51.498;7.540;2023-03-13T13:38:30;98305.53;;;21.47;36.32
16190;BME280;41754;51.498;7.540;2023-03-13T13:41:23;98279.25;;;20.61;37.76
16190;BME280;41754;51.498;7.540;2023-03-13T13:44:22;98288.78;;;20.64;37.91
16190;BME280;41754;51.498;7.540;2023-03-13T13:46:52;98322.66;;;21.69;35.87
16190;BME280;41754;51.498;7.540;2023-03-13T13:49:26;98296.56;;;20.96;37.05
16190;BME280;41754;51.498;7.540;2023-03-13T13:52:33;98314.72;;;20.64;37.84